Time;durP1;ratioP1;P1;durP2;ratioP2;P2;SDS_P1;SDS_P2;PMS_P1;PMS_P2;Temp;Humidity;BMP_temperature;BMP_pressure;BME280_temperature;BME280_humidity;BME280_pressure;Samples;Min_cycle;Max_cycle;Signal;HPM_P1;HPM_P2
2022/10/08 00:00:51;;;;;;;13.95;3.83;;;14.20;79.90;;;;;;5004987;28;20040;-75
2022/10/08 00:03:18;;;;;;;11.73;3.45;;;14.10;80.10;;;;;;5003834;28;20026;-75
2022/10/08 00:05:57;;;;;;;12.85;3.58;;;14.10;80.20;;;;;;5006676;28;20036;-75
2022/10/08 00:08:24;;;;;;;11.98;3.70;;;14.20;80.30;;;;;;5002958;28;20034;-75
2022/10/08 00:10:55;;;;;;;14.25;3.40;;;14.30;80.90;;;;;;5019293;28;20034;-76
2022/10/08 00:13:22;;;;;;;13.95;3.63;;;14.30;81.80;;;;;;5001688;28;20046;-74
2022/10/08 00:15:48;;;;;;;15.95;3.65;;;14.40;82.40;;;;;;5002380;28;20064;-75
2022/10/08 00:18:13;;;;;;;11.32;3.25;;;14.50;82.90;;;;;;5001372;28;20041;-75
2022/10/08 00:20:39;;;;;;;13.77;3.63;;;14.40;83.20;;;;;;5003479;28;20516;-75
2022/10/08 00:23:05;;;;;;;13.95;3.20;;;14.40;83.60;;;;;;5019078;28;20037;-73
2022/10/08 00:25:30;;;;;;;10.10;3.38;;;14.30;83.80;;;;;;5000222;28;20038;-75
2022/10/08 00:27:56;;;;;;;11.48;3.15;;;14.30;84.40;;;;;;5008146;28;20053;-76
2022/10/08 00:30:21;;;;;;;12.52;3.60;;;14.20;84.80;;;;;;5002734;28;20192;-75
2022/10/08 00:32:47;;;;;;;14.52;3.83;;;14.10;85.30;;;;;;5006186;28;20103;-75
2022/10/08 00:35:13;;;;;;;10.35;3.50;;;14.10;85.60;;;;;;4996464;28;20044;-75
2022/10/08 00:37:39;;;;;;;12.90;3.78;;;14.10;85.70;;;;;;5005850;28;20025;-76
2022/10/08 00:40:05;;;;;;;12.98;3.20;;;14.00;85.70;;;;;;5001402;28;20038;-76
2022/10/08 00:42:30;;;;;;;15.05;4.60;;;14.00;85.90;;;;;;5003227;28;20065;-74
2022/10/08 00:44:58;;;;;;;10.80;3.75;;;13.90;86.10;;;;;;5004366;28;20473;-76
2022/10/08 00:47:27;;;;;;;12.52;3.53;;;13.90;86.10;;;;;;5002673;28;20061;-75
2022/10/08 00:49:57;;;;;;;14.07;3.70;;;13.90;86.30;;;;;;5002158;28;20034;-74
2022/10/08 00:52:27;;;;;;;12.13;3.95;;;13.80;86.40;;;;;;5001618;28;20025;-74
2022/10/08 00:54:53;;;;;;;13.02;4.57;;;13.90;86.60;;;;;;5004119;28;20034;-76
2022/10/08 00:57:20;;;;;;;11.43;4.00;;;13.80;86.60;;;;;;5004469;28;20056;-75
2022/10/08 00:59:46;;;;;;;13.13;4.50;;;13.80;86.80;;;;;;5002686;28;20038;-75
2022/10/08 01:02:12;;;;;;;16.15;3.92;;;13.70;86.70;;;;;;5002552;28;20042;-75
2022/10/08 01:04:40;;;;;;;12.95;4.28;;;13.70;86.50;;;;;;5000930;28;20041;-75
2022/10/08 01:07:09;;;;;;;11.30;4.15;;;13.60;86.80;;;;;;5004550;28;20034;-75
2022/10/08 01:09:40;;;;;;;10.93;3.67;;;13.60;86.90;;;;;;5005151;28;20061;-76
2022/10/08 01:12:10;;;;;;;13.32;3.42;;;13.60;87.20;;;;;;5003692;28;20072;-77
2022/10/08 01:14:53;;;;;;;12.25;3.92;;;13.60;87.20;;;;;;5002690;28;20042;-76
2022/10/08 01:17:25;;;;;;;10.00;3.38;;;13.50;87.50;;;;;;5007556;28;20042;-74
2022/10/08 01:20:16;;;;;;;12.80;4.13;;;13.60;87.50;;;;;;5006507;28;20037;-76
2022/10/08 01:23:00;;;;;;;12.27;3.45;;;13.60;87.70;;;;;;5007529;28;20096;-75
2022/10/08 01:25:44;;;;;;;12.68;3.67;;;13.60;87.80;;;;;;5007599;28;20034;-76
2022/10/08 01:28:15;;;;;;;11.50;3.80;;;13.60;87.60;;;;;;5018385;28;20429;-76
2022/10/08 01:30:48;;;;;;;13.73;4.28;;;13.60;87.60;;;;;;5007107;28;20026;-75
2022/10/08 01:33:21;;;;;;;12.40;3.80;;;13.60;87.50;;;;;;5002897;28;20484;-77
2022/10/08 01:35:52;;;;;;;12.65;3.33;;;13.60;87.50;;;;;;5008740;28;20600;-76
2022/10/08 01:38:21;;;;;;;12.85;3.90;;;13.50;87.70;;;;;;5006515;28;20034;-78
2022/10/08 01:40:48;;;;;;;12.93;3.42;;;13.50;87.80;;;;;;5005259;28;20026;-76
2022/10/08 01:43:17;;;;;;;11.98;3.80;;;13.40;87.80;;;;;;5008049;28;20050;-75
2022/10/08 01:45:50;;;;;;;13.80;3.47;;;13.40;87.90;;;;;;5007477;28;20509;-77
2022/10/08 01:48:22;;;;;;;10.95;3.83;;;13.40;88.10;;;;;;5001662;28;20161;-75
2022/10/08 01:51:22;;;;;;;11.70;3.63;;;13.30;88.10;;;;;;5009917;28;20030;-76
2022/10/08 01:53:50;;;;;;;10.68;3.40;;;13.30;88.20;;;;;;5011253;28;20030;-76
2022/10/08 01:56:22;;;;;;;12.40;4.10;;;13.30;88.20;;;;;;5005691;28;20038;-76
2022/10/08 01:58:54;;;;;;;14.88;3.85;;;13.30;88.40;;;;;;5022569;28;20063;-76
2022/10/08 02:01:48;;;;;;;10.88;3.85;;;13.30;88.40;;;;;;5006537;28;20038;-76
2022/10/08 02:04:33;;;;;;;10.80;3.70;;;13.20;88.50;;;;;;5005313;28;20030;-74
2022/10/08 02:07:34;;;;;;;12.50;4.38;;;13.10;88.50;;;;;;5006417;28;20243;-74
2022/10/08 02:10:08;;;;;;;10.18;3.30;;;13.10;88.50;;;;;;4971882;28;20073;-74
2022/10/08 02:12:35;;;;;;;12.85;4.70;;;13.10;88.60;;;;;;5006238;28;20470;-74
2022/10/08 02:15:03;;;;;;;13.65;4.07;;;13.10;88.80;;;;;;5012691;28;20381;-75
2022/10/08 02:17:46;;;;;;;10.02;4.15;;;13.10;88.70;;;;;;5004877;28;20034;-75
2022/10/08 02:20:15;;;;;;;13.43;4.50;;;13.10;88.80;;;;;;5003591;28;20034;-74
2022/10/08 02:22:57;;;;;;;12.48;4.25;;;13.00;89.00;;;;;;5007535;28;20065;-75
2022/10/08 02:25:45;;;;;;;13.07;4.30;;;13.00;89.00;;;;;;5014747;28;20041;-76
2022/10/08 02:28:44;;;;;;;11.88;4.80;;;13.00;89.10;;;;;;5008661;28;20108;-74
2022/10/08 02:31:24;;;;;;;14.93;4.70;;;12.90;89.10;;;;;;5004083;28;20038;-75
2022/10/08 02:34:07;;;;;;;15.70;4.63;;;12.90;89.10;;;;;;5010066;28;20064;-74
2022/10/08 02:36:44;;;;;;;10.98;3.63;;;12.90;89.10;;;;;;5005998;28;20038;-75
2022/10/08 02:39:12;;;;;;;12.10;4.05;;;12.80;89.20;;;;;;5004186;28;20049;-76
2022/10/08 02:41:44;;;;;;;14.60;4.25;;;12.70;89.40;;;;;;5006679;28;20033;-76
2022/10/08 02:44:23;;;;;;;12.57;4.32;;;12.70;89.40;;;;;;5005508;28;20031;-75
2022/10/08 02:46:53;;;;;;;12.68;4.75;;;12.70;89.50;;;;;;5002463;28;20029;-77
2022/10/08 02:49:26;;;;;;;15.00;4.78;;;12.70;89.50;;;;;;5002911;28;20144;-76
2022/10/08 02:51:53;;;;;;;14.13;5.03;;;12.70;89.60;;;;;;5004755;28;20030;-76
2022/10/08 02:54:22;;;;;;;14.50;4.95;;;12.70;89.70;;;;;;5004407;28;20030;-77
2022/10/08 02:56:55;;;;;;;14.23;4.75;;;12.70;89.70;;;;;;5002128;28;20153;-76
2022/10/08 02:59:21;;;;;;;14.45;4.78;;;12.80;89.80;;;;;;5003698;28;20432;-77
2022/10/08 03:01:54;;;;;;;17.52;5.00;;;12.80;89.70;;;;;;5006137;28;20057;-76
2022/10/08 03:04:30;;;;;;;17.20;5.43;;;12.70;89.60;;;;;;5004273;28;20084;-75
2022/10/08 03:06:58;;;;;;;14.48;4.32;;;12.80;89.60;;;;;;5006212;28;20026;-75
2022/10/08 03:09:27;;;;;;;18.13;5.07;;;12.70;89.70;;;;;;5000198;28;20034;-75
2022/10/08 03:11:53;;;;;;;14.85;5.47;;;12.70;89.60;;;;;;5006059;28;20029;-75
2022/10/08 03:14:21;;;;;;;13.68;4.82;;;12.70;89.70;;;;;;5003193;28;20061;-76
2022/10/08 03:16:47;;;;;;;16.17;5.00;;;12.70;89.70;;;;;;5003798;28;20443;-76
2022/10/08 03:19:15;;;;;;;12.57;5.07;;;12.70;89.70;;;;;;5006319;28;20272;-76
2022/10/08 03:21:43;;;;;;;17.42;5.40;;;12.70;89.70;;;;;;5009083;28;20484;-75
2022/10/08 03:24:11;;;;;;;14.60;4.57;;;12.70;89.70;;;;;;4997945;28;20410;-75
2022/10/08 03:26:37;;;;;;;15.50;5.07;;;12.60;89.70;;;;;;5005635;28;20045;-74
2022/10/08 03:29:04;;;;;;;15.27;4.95;;;12.60;89.80;;;;;;5004921;28;20042;-74
2022/10/08 03:31:29;;;;;;;19.20;5.53;;;12.60;89.80;;;;;;5006868;28;20064;-74
2022/10/08 03:33:55;;;;;;;12.13;4.70;;;12.60;89.80;;;;;;5006472;28;20026;-74
2022/10/08 03:36:22;;;;;;;17.00;5.20;;;12.60;89.70;;;;;;5006499;28;20045;-74
2022/10/08 03:38:48;;;;;;;18.35;5.03;;;12.60;89.80;;;;;;5006292;28;20481;-75
2022/10/08 03:41:14;;;;;;;12.07;5.00;;;12.50;89.80;;;;;;5016558;28;20026;-77
2022/10/08 03:43:40;;;;;;;15.90;5.03;;;12.40;89.80;;;;;;5017857;28;20042;-76
2022/10/08 03:46:07;;;;;;;13.20;4.70;;;12.30;89.90;;;;;;5018064;28;20419;-76
2022/10/08 03:48:33;;;;;;;14.52;5.45;;;12.30;90.00;;;;;;5020375;28;20032;-76
2022/10/08 03:51:02;;;;;;;16.80;5.40;;;12.30;90.10;;;;;;5007078;28;20022;-75
2022/10/08 03:53:31;;;;;;;14.65;5.10;;;12.30;90.10;;;;;;4998549;28;20092;-76
2022/10/08 03:56:00;;;;;;;15.68;4.93;;;12.20;90.10;;;;;;5009307;28;20539;-75
2022/10/08 03:58:26;;;;;;;20.58;5.50;;;12.20;90.10;;;;;;5005454;28;20073;-75
2022/10/08 04:01:04;;;;;;;17.05;5.40;;;12.20;90.30;;;;;;5002310;28;20053;-75
2022/10/08 04:03:30;;;;;;;16.42;5.70;;;12.20;90.30;;;;;;5000328;28;20044;-75
2022/10/08 04:05:57;;;;;;;14.27;4.97;;;12.20;90.30;;;;;;5004064;28;20073;-75
2022/10/08 04:08:23;;;;;;;21.40;5.25;;;12.10;90.20;;;;;;5002348;28;20549;-75
2022/10/08 04:10:49;;;;;;;16.13;5.88;;;12.10;90.30;;;;;;5004811;28;20029;-76
2022/10/08 04:13:16;;;;;;;16.13;5.82;;;12.10;90.30;;;;;;5004462;28;20164;-74
2022/10/08 04:15:46;;;;;;;16.00;5.68;;;12.10;90.30;;;;;;5004774;28;20136;-77
2022/10/08 04:18:12;;;;;;;13.68;5.38;;;12.00;90.30;;;;;;5003631;28;20470;-76
2022/10/08 04:20:42;;;;;;;15.23;5.57;;;12.00;90.40;;;;;;5002732;28;20073;-76
2022/10/08 04:23:09;;;;;;;14.88;6.32;;;12.00;90.30;;;;;;5003920;28;20099;-76
2022/10/08 04:25:35;;;;;;;17.23;6.20;;;11.90;90.30;;;;;;5004147;28;20033;-75
2022/10/08 04:28:02;;;;;;;16.48;6.38;;;11.90;90.30;;;;;;5006040;28;20179;-77
2022/10/08 04:30:29;;;;;;;15.30;5.95;;;11.90;90.40;;;;;;5005750;28;21406;-77
2022/10/08 04:32:55;;;;;;;16.13;5.57;;;11.80;90.50;;;;;;5007475;28;20489;-77
2022/10/08 04:35:21;;;;;;;17.77;5.80;;;11.80;90.50;;;;;;5004823;28;20048;-75
2022/10/08 04:37:46;;;;;;;16.38;5.97;;;11.80;90.40;;;;;;5004519;28;20038;-76
2022/10/08 04:40:12;;;;;;;14.95;6.07;;;11.80;90.50;;;;;;5006811;28;20056;-78
2022/10/08 04:42:38;;;;;;;21.08;6.22;;;11.70;90.50;;;;;;5002628;28;20548;-75
2022/10/08 04:45:04;;;;;;;19.52;6.22;;;11.80;90.50;;;;;;5005624;28;20157;-75
2022/10/08 04:47:29;;;;;;;14.30;5.60;;;11.70;90.50;;;;;;5004517;28;20120;-75
2022/10/08 04:49:55;;;;;;;17.77;6.10;;;11.70;90.50;;;;;;5008532;28;20048;-76
2022/10/08 04:52:21;;;;;;;16.95;6.45;;;11.80;90.50;;;;;;5001536;28;20731;-74
2022/10/08 04:54:46;;;;;;;15.95;6.45;;;11.70;90.50;;;;;;5005388;28;20119;-75
2022/10/08 04:57:12;;;;;;;20.25;6.43;;;11.70;90.50;;;;;;5003411;28;20113;-75
2022/10/08 04:59:38;;;;;;;17.35;6.40;;;11.70;90.50;;;;;;5007679;28;20056;-76
2022/10/08 05:02:03;;;;;;;23.10;6.72;;;11.60;90.60;;;;;;5005452;28;20465;-75
2022/10/08 05:04:29;;;;;;;18.27;5.97;;;11.60;90.70;;;;;;5000406;28;20038;-76
2022/10/08 05:06:54;;;;;;;15.35;6.68;;;11.60;90.80;;;;;;5004921;28;20588;-75
2022/10/08 05:09:20;;;;;;;17.80;6.88;;;11.60;90.80;;;;;;5002777;28;20083;-75
2022/10/08 05:11:46;;;;;;;17.27;6.50;;;11.60;90.90;;;;;;5003087;28;20282;-75
2022/10/08 05:14:12;;;;;;;19.20;6.95;;;11.60;90.90;;;;;;5001899;28;20886;-76
2022/10/08 05:16:37;;;;;;;18.08;6.43;;;11.70;91.00;;;;;;5003819;28;20042;-75
2022/10/08 05:19:03;;;;;;;16.70;6.18;;;11.80;90.80;;;;;;5003822;28;20037;-74
2022/10/08 05:21:30;;;;;;;21.30;7.35;;;11.70;90.70;;;;;;5003548;28;20037;-76
2022/10/08 05:24:02;;;;;;;20.30;6.38;;;11.80;90.70;;;;;;5004127;28;20050;-74
2022/10/08 05:26:30;;;;;;;19.88;7.35;;;11.70;90.80;;;;;;5003309;28;20042;-75
2022/10/08 05:28:57;;;;;;;19.00;6.82;;;11.70;90.70;;;;;;5002486;28;20767;-75
2022/10/08 05:31:25;;;;;;;16.73;7.35;;;11.70;90.80;;;;;;5003832;28;20034;-75
2022/10/08 05:33:51;;;;;;;17.60;7.03;;;11.70;90.60;;;;;;5005089;28;20038;-75
2022/10/08 05:36:23;;;;;;;16.90;6.85;;;11.70;90.60;;;;;;5001647;28;20045;-75
2022/10/08 05:38:49;;;;;;;19.75;7.28;;;11.80;90.50;;;;;;5001143;28;20045;-75
2022/10/08 05:41:17;;;;;;;21.30;7.75;;;11.70;90.40;;;;;;5007256;28;20030;-76
2022/10/08 05:43:44;;;;;;;15.23;6.18;;;11.60;90.30;;;;;;5002660;28;20022;-75
2022/10/08 05:46:10;;;;;;;16.88;5.97;;;11.60;90.40;;;;;;5003987;28;20548;-75
2022/10/08 05:48:36;;;;;;;16.45;6.15;;;11.60;90.40;;;;;;5000966;28;20053;-75
2022/10/08 05:51:13;;;;;;;22.25;7.63;;;11.60;90.30;;;;;;5005779;28;20516;-75
2022/10/08 05:53:41;;;;;;;16.75;6.18;;;11.60;90.30;;;;;;5000512;28;20300;-76
2022/10/08 05:56:09;;;;;;;13.63;6.07;;;11.60;90.20;;;;;;5005935;28;20350;-75
2022/10/08 05:58:36;;;;;;;19.48;7.32;;;11.50;90.20;;;;;;4998044;28;20038;-74
2022/10/08 06:01:19;;;;;;;15.73;6.90;;;11.50;90.20;;;;;;5005258;28;20040;-74
2022/10/08 06:03:51;;;;;;;18.38;6.95;;;11.50;90.20;;;;;;5004893;28;20038;-76
2022/10/08 06:06:16;;;;;;;17.33;6.65;;;11.50;90.20;;;;;;5019813;28;20183;-75
2022/10/08 06:08:42;;;;;;;19.27;6.90;;;11.40;90.10;;;;;;5010199;28;21415;-75
2022/10/08 06:11:08;;;;;;;20.40;6.82;;;11.50;90.20;;;;;;5005874;28;20373;-76
2022/10/08 06:13:34;;;;;;;18.38;7.30;;;11.50;90.10;;;;;;4997309;28;20059;-76
2022/10/08 06:16:03;;;;;;;15.35;6.32;;;11.40;90.10;;;;;;5028829;28;20075;-75
2022/10/08 06:18:31;;;;;;;15.32;6.45;;;11.40;90.00;;;;;;5022949;28;20033;-76
2022/10/08 06:21:02;;;;;;;21.50;7.43;;;11.40;90.00;;;;;;5006203;28;20065;-76
2022/10/08 06:23:27;;;;;;;16.05;7.13;;;11.30;90.10;;;;;;5009939;28;20160;-75
2022/10/08 06:25:53;;;;;;;21.05;6.75;;;11.40;90.10;;;;;;5010011;28;20026;-75
2022/10/08 06:28:18;;;;;;;18.75;7.00;;;11.50;90.00;;;;;;5008281;28;20030;-75
2022/10/08 06:30:44;;;;;;;19.67;7.03;;;11.50;89.90;;;;;;5008546;28;20046;-75
2022/10/08 06:33:10;;;;;;;17.80;7.10;;;11.60;90.00;;;;;;5007859;28;20425;-74
2022/10/08 06:35:36;;;;;;;18.50;6.70;;;11.60;89.70;;;;;;5008444;28;20042;-74
2022/10/08 06:38:03;;;;;;;19.10;7.88;;;11.70;89.60;;;;;;5006429;28;20069;-74
2022/10/08 06:40:37;;;;;;;18.80;7.50;;;11.80;89.30;;;;;;5005626;28;20034;-75
2022/10/08 06:43:06;;;;;;;17.52;7.47;;;11.80;89.10;;;;;;5006016;28;20365;-75
2022/10/08 06:45:36;;;;;;;19.50;8.23;;;11.80;88.90;;;;;;5007330;28;20034;-73
2022/10/08 06:48:02;;;;;;;17.88;8.18;;;11.90;88.80;;;;;;5004014;28;20482;-74
2022/10/08 06:50:27;;;;;;;17.85;8.38;;;12.00;88.70;;;;;;5004651;28;20041;-74
2022/10/08 06:52:53;;;;;;;16.67;7.43;;;12.10;88.50;;;;;;5005091;28;20037;-74
2022/10/08 06:55:18;;;;;;;20.17;7.50;;;12.00;88.20;;;;;;5005850;28;20026;-74
2022/10/08 06:57:44;;;;;;;17.10;7.88;;;12.00;88.20;;;;;;5006276;28;20036;-76
2022/10/08 07:00:10;;;;;;;17.92;7.75;;;12.00;88.10;;;;;;5003863;28;20096;-74
2022/10/08 07:02:36;;;;;;;16.83;8.30;;;12.00;87.90;;;;;;5004299;28;20026;-74
2022/10/08 07:05:01;;;;;;;17.63;8.20;;;12.00;88.00;;;;;;5002708;28;20773;-75
2022/10/08 07:07:27;;;;;;;22.10;8.52;;;12.00;88.00;;;;;;5005165;28;20046;-76
2022/10/08 07:09:53;;;;;;;20.65;9.20;;;12.00;87.80;;;;;;5015721;28;20358;-76
2022/10/08 07:12:18;;;;;;;15.38;7.65;;;12.00;87.70;;;;;;5002733;28;20028;-76
2022/10/08 07:14:44;;;;;;;19.35;8.63;;;12.10;87.70;;;;;;5004351;28;20551;-74
2022/10/08 07:17:10;;;;;;;19.42;8.20;;;12.10;87.60;;;;;;5005468;28;20544;-74
2022/10/08 07:19:35;;;;;;;14.98;7.57;;;12.10;87.50;;;;;;5007963;28;20117;-76
2022/10/08 07:22:01;;;;;;;18.17;7.53;;;12.10;87.40;;;;;;5002230;28;20078;-75
2022/10/08 07:24:27;;;;;;;17.35;7.88;;;12.10;87.30;;;;;;5008210;28;20526;-74
2022/10/08 07:26:52;;;;;;;17.17;7.10;;;12.20;87.30;;;;;;5002047;28;20092;-75
2022/10/08 07:29:18;;;;;;;19.15;7.20;;;12.30;87.00;;;;;;5006382;28;20033;-76
2022/10/08 07:31:43;;;;;;;17.48;7.50;;;12.30;86.70;;;;;;5002873;28;20466;-75
2022/10/08 07:34:11;;;;;;;17.05;7.38;;;12.30;86.70;;;;;;5020277;28;20026;-76
2022/10/08 07:36:38;;;;;;;16.58;6.45;;;12.40;86.60;;;;;;5012827;28;20049;-75
2022/10/08 07:39:17;;;;;;;14.95;6.47;;;12.40;86.50;;;;;;5007739;28;20034;-75
2022/10/08 07:41:43;;;;;;;13.32;6.20;;;12.50;86.30;;;;;;5007957;28;20056;-76
2022/10/08 07:44:10;;;;;;;20.30;7.47;;;12.60;86.00;;;;;;5004724;28;20096;-74
2022/10/08 07:46:40;;;;;;;14.15;5.88;;;12.60;85.30;;;;;;5003550;28;20042;-75
2022/10/08 07:49:06;;;;;;;15.75;6.10;;;12.70;85.10;;;;;;5004229;28;20033;-74
2022/10/08 07:51:33;;;;;;;15.98;5.82;;;12.90;84.80;;;;;;5004334;28;20051;-75
2022/10/08 07:54:00;;;;;;;14.57;6.15;;;13.00;84.20;;;;;;5006162;28;20076;-76
2022/10/08 07:56:26;;;;;;;18.85;5.20;;;13.10;83.70;;;;;;5004872;28;20516;-75
2022/10/08 07:58:51;;;;;;;13.57;5.57;;;13.20;82.50;;;;;;5005663;28;20042;-74
2022/10/08 08:01:20;;;;;;;11.95;5.38;;;13.40;82.20;;;;;;5015647;28;20033;-76
2022/10/08 08:03:52;;;;;;;15.40;5.40;;;13.50;81.20;;;;;;5005877;28;20049;-75
2022/10/08 08:06:18;;;;;;;13.23;4.40;;;13.60;80.30;;;;;;5002862;28;20421;-75
2022/10/08 08:08:44;;;;;;;16.33;5.25;;;13.60;79.60;;;;;;5002749;28;20045;-76
2022/10/08 08:11:13;;;;;;;12.57;4.43;;;13.70;79.80;;;;;;4997974;28;20393;-76
2022/10/08 08:13:40;;;;;;;22.02;4.70;;;13.80;79.20;;;;;;5002964;28;20905;-75
2022/10/08 08:16:09;;;;;;;15.27;4.60;;;13.80;77.90;;;;;;4996288;28;20039;-75
2022/10/08 08:18:37;;;;;;;13.40;4.30;;;14.10;77.90;;;;;;4994522;28;20038;-74
2022/10/08 08:21:06;;;;;;;13.13;4.32;;;14.10;77.80;;;;;;5001426;28;20050;-75
2022/10/08 08:23:34;;;;;;;13.98;3.90;;;14.20;77.60;;;;;;5001487;28;20048;-75
2022/10/08 08:26:06;;;;;;;12.50;3.80;;;14.20;77.10;;;;;;4995711;28;20069;-76
2022/10/08 08:28:32;;;;;;;12.85;3.58;;;14.30;76.10;;;;;;5003427;28;20030;-77
2022/10/08 08:31:13;;;;;;;10.73;3.50;;;14.50;75.10;;;;;;5002793;28;20108;-76
2022/10/08 08:33:40;;;;;;;11.68;2.90;;;14.50;74.10;;;;;;5000667;28;20042;-76
2022/10/08 08:36:06;;;;;;;13.25;2.78;;;14.60;72.90;;;;;;4997299;28;20092;-75
2022/10/08 08:38:36;;;;;;;10.90;3.08;;;14.70;73.10;;;;;;5002024;28;20109;-75
2022/10/08 08:41:21;;;;;;;10.18;2.75;;;14.80;71.70;;;;;;4997877;28;20046;-76
2022/10/08 08:43:47;;;;;;;;;;;15.00;71.90;;;;;;4997875;28;20496;-76
2022/10/08 08:46:18;;;;;;;12.48;2.78;;;14.80;70.20;;;;;;4992792;28;19914;-76
2022/10/08 08:48:44;;;;;;;11.73;2.42;;;14.80;70.20;;;;;;5006531;28;20030;-75
2022/10/08 08:51:10;;;;;;;10.93;2.53;;;15.00;70.10;;;;;;5006513;28;20018;-74
2022/10/08 08:53:36;;;;;;;14.13;2.70;;;15.20;70.30;;;;;;5017957;28;20040;-75
2022/10/08 08:56:05;;;;;;;8.27;2.25;;;15.20;68.60;;;;;;5006367;28;20381;-75
2022/10/08 08:58:40;;;;;;;10.25;2.13;;;15.30;68.60;;;;;;5000493;28;20032;-75
2022/10/08 09:01:09;;;;;;;11.70;2.28;;;15.10;67.80;;;;;;5002729;28;20465;-73
2022/10/08 09:03:51;;;;;;;11.35;2.20;;;15.40;68.30;;;;;;5007030;28;20057;-76
2022/10/08 09:06:21;;;;;;;12.70;2.13;;;15.60;68.00;;;;;;5001348;28;20664;-75
2022/10/08 09:09:13;;;;;;;14.75;2.47;;;15.70;67.40;;;;;;5005932;28;20042;-76
2022/10/08 09:11:41;;;;;;;10.68;2.30;;;15.90;67.80;;;;;;5006189;28;20032;-75
2022/10/08 09:14:13;;;;;;;11.52;1.92;;;15.80;67.20;;;;;;5003891;28;20305;-76
2022/10/08 09:16:39;;;;;;;11.70;2.67;;;15.70;66.90;;;;;;5007211;28;20042;-76
2022/10/08 09:19:05;;;;;;;11.00;2.97;;;15.80;66.00;;;;;;5003811;28;20038;-76
2022/10/08 09:21:33;;;;;;;9.32;2.40;;;16.00;66.10;;;;;;5006115;28;20034;-75
2022/10/08 09:23:59;;;;;;;13.35;2.55;;;16.10;66.20;;;;;;5002526;28;20385;-76
2022/10/08 09:26:30;;;;;;;12.57;2.65;;;16.40;65.20;;;;;;4999307;28;20120;-75
2022/10/08 09:29:00;;;;;;;7.82;1.90;;;16.00;63.30;;;;;;5001180;28;20151;-76
2022/10/08 09:31:44;;;;;;;11.02;2.00;;;16.00;63.90;;;;;;5007571;28;20038;-76
2022/10/08 09:34:10;;;;;;;13.48;2.15;;;15.80;63.10;;;;;;5002292;28;20033;-77
2022/10/08 09:36:49;;;;;;;10.85;2.20;;;15.50;64.50;;;;;;5023999;28;20386;-76
2022/10/08 09:39:21;;;;;;;9.23;1.88;;;15.40;65.10;;;;;;5004124;28;20045;-75
2022/10/08 09:42:05;;;;;;;13.10;2.00;;;15.60;65.50;;;;;;5004138;28;20481;-75
2022/10/08 09:44:45;;;;;;;15.00;3.40;;;16.00;64.90;;;;;;4996162;28;20039;-76
2022/10/08 09:47:16;;;;;;;10.98;2.10;;;16.30;63.30;;;;;;5018211;28;20245;-75
2022/10/08 09:49:43;;;;;;;10.45;2.47;;;16.40;61.20;;;;;;5004661;28;20069;-75
2022/10/08 09:52:27;;;;;;;11.15;2.30;;;16.30;60.50;;;;;;4995663;28;20472;-73
2022/10/08 09:55:06;;;;;;;10.23;2.30;;;16.00;59.70;;;;;;5000961;28;20084;-75
2022/10/08 09:57:34;;;;;;;9.43;2.30;;;16.10;61.20;;;;;;5006198;28;20112;-74
2022/10/08 10:00:01;;;;;;;12.32;1.85;;;16.50;61.30;;;;;;5001093;28;20643;-75
2022/10/08 10:02:37;;;;;;;9.27;1.90;;;16.20;61.50;;;;;;5009068;28;20041;-74
2022/10/08 10:05:18;;;;;;;8.95;2.00;;;16.30;61.50;;;;;;5004037;28;20042;-74
2022/10/08 10:07:45;;;;;;;9.07;1.83;;;16.50;62.20;;;;;;4999490;28;20129;-74
2022/10/08 10:10:27;;;;;;;11.52;2.15;;;16.70;61.20;;;;;;4997388;28;20469;-75
2022/10/08 10:12:59;;;;;;;12.90;2.38;;;16.90;59.50;;;;;;5015656;28;20038;-76
2022/10/08 10:15:34;;;;;;;11.77;1.88;;;16.90;60.30;;;;;;5006017;28;20042;-75
2022/10/08 10:18:12;;;;;;;7.72;2.20;;;17.00;58.10;;;;;;5005975;28;20110;-75
2022/10/08 10:20:57;;;;;;;12.20;1.90;;;16.70;58.00;;;;;;5004658;28;20076;-75
2022/10/08 10:23:44;;;;;;;9.57;1.98;;;16.70;59.40;;;;;;5010774;28;20474;-75
2022/10/08 10:26:16;;;;;;;9.30;1.98;;;16.30;60.00;;;;;;5016056;28;20726;-79
2022/10/08 10:28:49;;;;;;;7.57;1.55;;;16.10;60.70;;;;;;5028642;28;20017;-77
2022/10/08 10:31:50;;;;;;;12.88;1.75;;;16.10;60.70;;;;;;5007608;28;20046;-75
2022/10/08 10:34:20;;;;;;;10.10;1.88;;;16.50;58.80;;;;;;5008771;28;20037;-77
2022/10/08 10:36:53;;;;;;;9.13;2.33;;;16.60;58.70;;;;;;5019535;28;20057;-78
2022/10/08 10:39:37;;;;;;;9.68;1.90;;;16.70;59.50;;;;;;5035013;28;20029;-76
2022/10/08 10:42:11;;;;;;;9.50;2.20;;;16.80;58.50;;;;;;5019617;28;20049;-76
2022/10/08 10:45:03;;;;;;;7.97;1.90;;;16.90;58.50;;;;;;5024439;28;20109;-77
2022/10/08 10:47:30;;;;;;;10.15;1.52;;;16.80;59.60;;;;;;5010267;28;20295;-76
2022/10/08 10:49:57;;;;;;;8.13;1.98;;;16.30;60.10;;;;;;5028536;28;20097;-77
2022/10/08 10:53:03;;;;;;;7.43;1.75;;;16.40;60.20;;;;;;5012492;28;20061;-77
2022/10/08 10:55:43;;;;;;;6.40;1.55;;;16.50;57.60;;;;;;5002905;28;20046;-77
2022/10/08 10:58:27;;;;;;;10.30;1.80;;;16.30;58.30;;;;;;5014799;28;20049;-77
2022/10/08 11:00:52;;;;;;;12.90;2.38;;;16.70;58.50;;;;;;5007025;28;20091;-74
2022/10/08 11:03:49;;;;;;;8.68;1.42;;;17.00;57.40;;;;;;5006157;28;20068;-76
2022/10/08 11:06:29;;;;;;;10.15;1.88;;;17.50;58.10;;;;;;5009818;28;20489;-75
2022/10/08 11:09:25;;;;;;;10.80;1.70;;;17.80;54.90;;;;;;5001971;28;20044;-75
2022/10/08 11:11:58;;;;;;;8.88;1.80;;;17.70;53.20;;;;;;5001468;28;20072;-76
2022/10/08 11:14:55;;;;;;;8.05;1.92;;;17.60;53.40;;;;;;5006577;28;20061;-75
2022/10/08 11:17:40;;;;;;;9.57;2.10;;;17.30;54.00;;;;;;5024886;28;20132;-75
2022/10/08 11:20:47;;;;;;;11.25;2.10;;;17.10;55.30;;;;;;4995219;28;20025;-75
2022/10/08 11:23:22;;;;;;;9.93;2.03;;;17.10;55.10;;;;;;4980366;28;20045;-77
2022/10/08 11:26:18;;;;;;;10.85;1.90;;;17.10;54.90;;;;;;4999999;28;20115;-76
2022/10/08 11:28:56;;;;;;;12.70;1.85;;;17.30;55.40;;;;;;5002618;28;20050;-76
2022/10/08 11:31:25;;;;;;;11.52;2.13;;;17.40;54.60;;;;;;5002926;28;20045;-75
2022/10/08 11:33:53;;;;;;;8.82;2.70;;;17.50;55.60;;;;;;4999365;28;20033;-78
2022/10/08 11:36:44;;;;;;;6.63;1.80;;;17.70;56.00;;;;;;5011581;28;20501;-78
2022/10/08 11:39:18;;;;;;;8.50;1.58;;;17.60;54.50;;;;;;5004230;28;20076;-76
2022/10/08 11:42:09;;;;;;;9.35;2.13;;;17.20;53.90;;;;;;5007717;28;20109;-76
2022/10/08 11:44:36;;;;;;;9.13;1.70;;;16.70;55.90;;;;;;5009170;28;20176;-76
2022/10/08 11:47:34;;;;;;;8.27;2.10;;;16.50;57.80;;;;;;5007543;28;20514;-74
2022/10/08 11:50:01;;;;;;;8.02;1.60;;;16.10;58.70;;;;;;4999360;28;20117;-77
2022/10/08 11:52:31;;;;;;;11.35;1.80;;;16.10;58.80;;;;;;5006751;28;20163;-75
2022/10/08 11:54:59;;;;;;;10.20;2.03;;;15.90;59.80;;;;;;5007626;28;20041;-77
2022/10/08 11:57:34;;;;;;;14.02;2.08;;;16.10;59.50;;;;;;5002786;28;20465;-75
2022/10/08 12:00:01;;;;;;;;;;;16.30;59.60;;;;;;4999198;28;20520;-77
2022/10/08 12:02:37;;;;;;;11.15;2.47;;;16.50;59.00;;;;;;5005784;28;19921;-77
2022/10/08 12:05:21;;;;;;;9.32;2.00;;;16.60;59.50;;;;;;5019274;28;20060;-75
2022/10/08 12:07:55;;;;;;;9.18;2.05;;;16.70;59.50;;;;;;4997452;28;20080;-78
2022/10/08 12:10:28;;;;;;;12.63;2.20;;;17.00;59.50;;;;;;5015943;28;20034;-78
2022/10/08 12:12:58;;;;;;;10.35;2.15;;;17.30;58.90;;;;;;5005903;28;20079;-75
2022/10/08 12:15:24;;;;;;;8.80;1.90;;;17.50;58.30;;;;;;5000965;28;20042;-74
2022/10/08 12:17:58;;;;;;;10.63;1.63;;;17.70;57.20;;;;;;5000753;28;20053;-74
2022/10/08 12:20:32;;;;;;;9.45;2.00;;;17.60;56.80;;;;;;5004906;28;20026;-75
2022/10/08 12:23:04;;;;;;;8.02;1.90;;;17.30;57.10;;;;;;5002809;28;20042;-76
2022/10/08 12:25:39;;;;;;;10.35;1.80;;;17.10;58.30;;;;;;5000016;28;20462;-78
2022/10/08 12:28:20;;;;;;;9.85;2.20;;;17.10;58.80;;;;;;5006804;28;20128;-77
2022/10/08 12:30:46;;;;;;;10.32;2.63;;;17.00;58.50;;;;;;5001256;28;20165;-79
2022/10/08 12:33:11;;;;;;;8.70;1.80;;;17.00;57.70;;;;;;5005106;28;20050;-75
2022/10/08 12:35:46;;;;;;;7.97;1.92;;;16.90;57.80;;;;;;5014453;28;20033;-76
2022/10/08 12:38:37;;;;;;;8.65;2.03;;;16.80;57.00;;;;;;4998572;28;20038;-76
2022/10/08 12:41:15;;;;;;;9.57;1.85;;;16.90;56.90;;;;;;5005113;28;20038;-77
2022/10/08 12:44:03;;;;;;;8.27;1.77;;;17.10;57.30;;;;;;5013311;28;20029;-77
2022/10/08 12:46:54;;;;;;;9.48;1.92;;;17.10;56.30;;;;;;5016434;28;20058;-76
2022/10/08 12:49:45;;;;;;;7.78;1.63;;;17.40;55.10;;;;;;5000740;28;20490;-76
2022/10/08 12:52:14;;;;;;;10.77;1.50;;;17.40;52.30;;;;;;4999840;28;20080;-76
2022/10/08 12:54:52;;;;;;;8.98;1.80;;;17.10;53.30;;;;;;4996860;28;20029;-75
2022/10/08 12:57:34;;;;;;;9.73;1.92;;;16.80;54.70;;;;;;5004284;28;20038;-76
2022/10/08 13:00:27;;;;;;;8.35;1.90;;;16.40;57.10;;;;;;5002178;28;20087;-76